createdAt,value
2022-11-10T07:41:08.936Z,9.30
2022-11-10T07:43:35.650Z,9.30
2022-11-10T07:46:02.261Z,9.30
2022-11-10T07:48:28.884Z,9.40
2022-11-10T07:50:55.479Z,9.40
2022-11-10T07:53:22.522Z,9.30
2022-11-10T07:55:49.559Z,9.40
2022-11-10T07:58:18.170Z,9.40
2022-11-10T08:00:46.364Z,9.40
2022-11-10T08:03:21.538Z,9.40
2022-11-10T08:05:49.011Z,9.50
2022-11-10T08:08:15.757Z,9.50
2022-11-10T08:10:42.520Z,9.50
2022-11-10T08:13:11.588Z,9.50
2022-11-10T08:15:39.160Z,9.60
2022-11-10T08:18:13.020Z,9.60
2022-11-10T08:20:39.656Z,9.60
2022-11-10T08:23:06.947Z,9.70
2022-11-10T08:25:35.758Z,9.70
2022-11-10T08:28:09.124Z,9.80
2022-11-10T08:30:37.799Z,9.70
2022-11-10T08:33:06.087Z,9.80
2022-11-10T08:35:36.693Z,9.90
2022-11-10T08:38:15.072Z,9.90
2022-11-10T08:40:42.668Z,9.90
2022-11-10T08:43:09.956Z,10.00
2022-11-10T08:45:38.274Z,10.00
2022-11-10T08:48:16.704Z,10.10
2022-11-10T08:50:43.527Z,10.10
2022-11-10T08:53:13.507Z,10.10
2022-11-10T08:55:40.895Z,10.20
2022-11-10T08:58:10.035Z,10.20
2022-11-10T09:00:36.731Z,10.20
2022-11-10T09:03:08.340Z,10.30
2022-11-10T09:05:36.020Z,10.30
2022-11-10T09:08:04.084Z,10.40
2022-11-10T09:10:35.129Z,10.50
2022-11-10T09:13:03.201Z,10.50
2022-11-10T09:15:31.250Z,10.50
2022-11-10T09:17:59.675Z,10.60
2022-11-10T09:20:28.074Z,10.70
2022-11-10T09:22:55.096Z,10.70
2022-11-10T09:25:22.381Z,10.70
2022-11-10T09:27:49.099Z,10.80
2022-11-10T09:30:17.956Z,10.80
2022-11-10T09:32:46.642Z,10.90
2022-11-10T09:35:13.662Z,10.90
2022-11-10T09:37:41.020Z,10.90
2022-11-10T09:40:17.567Z,11.00
2022-11-10T09:42:45.897Z,11.00
2022-11-10T09:45:23.517Z,11.10
2022-11-10T09:47:57.786Z,11.10
2022-11-10T09:50:30.032Z,11.20
2022-11-10T09:52:57.923Z,11.20
2022-11-10T09:55:30.675Z,11.30
2022-11-10T09:57:59.648Z,11.30
2022-11-10T10:00:28.663Z,11.40
2022-11-10T10:03:12.687Z,11.40
2022-11-10T10:05:51.635Z,11.50
2022-11-10T10:08:40.612Z,11.50
2022-11-10T10:11:41.068Z,11.60
2022-11-10T10:14:21.605Z,11.60
2022-11-10T10:17:04.317Z,11.70
2022-11-10T10:19:44.915Z,11.70
2022-11-10T10:22:14.572Z,11.80
2022-11-10T10:24:41.355Z,11.80
2022-11-10T10:27:13.050Z,11.80
2022-11-10T10:29:49.238Z,11.90
2022-11-10T10:32:17.108Z,11.90
2022-11-10T10:34:45.264Z,11.90
2022-11-10T10:37:39.295Z,12.00
2022-11-10T10:40:06.697Z,12.10
2022-11-10T10:42:36.329Z,12.10
2022-11-10T10:45:19.895Z,12.10
2022-11-10T10:47:49.445Z,12.10
2022-11-10T10:50:27.004Z,12.10
2022-11-10T10:53:21.856Z,12.10
2022-11-10T10:55:54.534Z,12.20
2022-11-10T10:58:23.562Z,12.20
2022-11-10T11:00:55.070Z,12.20
2022-11-10T11:03:39.913Z,12.20
2022-11-10T11:06:15.595Z,12.20
2022-11-10T11:08:59.634Z,12.30
2022-11-10T11:11:33.120Z,12.30
2022-11-10T11:14:26.187Z,12.30
2022-11-10T11:16:55.076Z,12.30
2022-11-10T11:19:26.119Z,12.30
2022-11-10T11:22:30.356Z,12.40
2022-11-10T11:25:28.613Z,12.40
2022-11-10T11:28:40.820Z,12.40
2022-11-10T11:31:43.459Z,12.50
2022-11-10T11:34:12.979Z,12.50
2022-11-10T11:37:14.156Z,12.60
2022-11-10T11:40:08.383Z,12.50
2022-11-10T11:42:59.770Z,12.60
2022-11-10T11:45:32.645Z,12.60
2022-11-10T11:48:27.014Z,12.70
2022-11-10T11:51:28.400Z,12.70
2022-11-10T11:54:11.324Z,12.70
2022-11-10T11:56:47.529Z,12.70
2022-11-10T11:59:23.487Z,12.80
2022-11-10T12:02:21.160Z,12.80
2022-11-10T12:05:08.608Z,12.90
2022-11-10T12:07:58.234Z,12.90
2022-11-10T12:10:41.971Z,12.90
2022-11-10T12:13:30.191Z,12.90
2022-11-10T12:16:21.948Z,13.00
2022-11-10T12:19:15.474Z,13.00
2022-11-10T12:22:24.719Z,12.90
2022-11-10T12:25:28.023Z,13.00
2022-11-10T12:28:17.198Z,13.00
2022-11-10T12:30:45.817Z,12.90
2022-11-10T12:33:48.115Z,12.90
2022-11-10T12:36:18.271Z,13.00
2022-11-10T12:39:17.131Z,13.00
2022-11-10T12:41:58.036Z,13.00
2022-11-10T12:44:34.940Z,13.00
2022-11-10T12:47:05.488Z,13.00
2022-11-10T12:49:41.482Z,13.10
2022-11-10T12:52:23.418Z,13.10
2022-11-10T12:54:50.046Z,13.10
2022-11-10T12:57:21.646Z,13.20
2022-11-10T13:00:02.391Z,13.20
2022-11-10T13:02:42.458Z,13.30
2022-11-10T13:05:29.405Z,13.30
2022-11-10T13:08:24.128Z,13.40
2022-11-10T13:10:54.530Z,13.40
2022-11-10T13:13:22.767Z,13.40
2022-11-10T13:15:55.675Z,13.40
2022-11-10T13:18:31.711Z,13.40
2022-11-10T13:20:59.607Z,13.40
2022-11-10T13:23:48.613Z,13.40
2022-11-10T13:26:40.098Z,13.40
2022-11-10T13:29:34.916Z,13.40
2022-11-10T13:32:07.601Z,13.40
2022-11-10T13:34:38.935Z,13.40
2022-11-10T13:37:45.212Z,13.40
2022-11-10T13:40:20.867Z,13.40
2022-11-10T13:42:59.952Z,13.40
2022-11-10T13:45:39.894Z,13.30
2022-11-10T13:48:12.416Z,13.40
2022-11-10T13:50:41.782Z,13.40
2022-11-10T13:53:17.168Z,13.30
2022-11-10T13:56:00.561Z,13.30
2022-11-10T13:58:34.035Z,13.40
2022-11-10T14:01:18.910Z,13.40
2022-11-10T14:03:45.604Z,13.40
2022-11-10T14:06:22.605Z,13.40
2022-11-10T14:09:13.628Z,13.40
2022-11-10T14:11:51.278Z,13.40
2022-11-10T14:14:21.692Z,13.40
2022-11-10T14:16:49.934Z,13.40
2022-11-10T14:19:23.110Z,13.40
2022-11-10T14:21:58.124Z,13.40
2022-11-10T14:24:35.587Z,13.40
2022-11-10T14:27:09.104Z,13.30
2022-11-10T14:29:40.641Z,13.30
2022-11-10T14:32:21.237Z,13.30
2022-11-10T14:34:50.123Z,13.30
2022-11-10T14:37:24.763Z,13.20
2022-11-10T14:39:56.965Z,13.20
2022-11-10T14:42:30.210Z,13.20
2022-11-10T14:45:15.882Z,13.20
2022-11-10T14:47:42.802Z,13.20
2022-11-10T14:50:20.130Z,13.20
2022-11-10T14:52:50.805Z,13.20
2022-11-10T14:55:19.918Z,13.20
2022-11-10T14:57:53.449Z,13.20
2022-11-10T15:00:25.240Z,13.20
2022-11-10T15:02:57.531Z,13.10
2022-11-10T15:05:25.380Z,13.10
2022-11-10T15:07:55.609Z,13.10
2022-11-10T15:10:40.182Z,13.10
2022-11-10T15:13:19.684Z,13.10
2022-11-10T15:15:46.355Z,13.00
2022-11-10T15:18:29.988Z,13.00
2022-11-10T15:21:04.762Z,13.00
2022-11-10T15:23:38.043Z,13.00
2022-11-10T15:26:06.289Z,12.90
2022-11-10T15:28:35.252Z,12.90
2022-11-10T15:31:06.200Z,12.80
2022-11-10T15:33:35.896Z,12.80
2022-11-10T15:36:17.985Z,12.80
2022-11-10T15:38:44.737Z,12.70
2022-11-10T15:41:26.753Z,12.70
2022-11-10T15:43:54.143Z,12.60
2022-11-10T15:46:24.257Z,12.60
2022-11-10T15:48:52.489Z,12.50
2022-11-10T15:51:25.874Z,12.50
2022-11-10T15:53:54.218Z,12.40
2022-11-10T15:56:23.019Z,12.30
2022-11-10T15:58:56.582Z,12.30
2022-11-10T16:01:27.795Z,12.30
2022-11-10T16:03:55.175Z,12.20
2022-11-10T16:06:21.914Z,12.20
2022-11-10T16:08:48.540Z,12.10
2022-11-10T16:11:20.917Z,12.00
2022-11-10T16:13:50.155Z,12.00
2022-11-10T16:16:18.660Z,11.90
2022-11-10T16:18:46.123Z,11.90
2022-11-10T16:21:14.431Z,11.80
2022-11-10T16:23:41.915Z,11.80
2022-11-10T16:26:13.278Z,11.70
2022-11-10T16:28:43.893Z,11.70
2022-11-10T16:31:11.484Z,11.60
2022-11-10T16:33:38.502Z,11.60
2022-11-10T16:36:05.550Z,11.50
2022-11-10T16:38:32.586Z,11.50
2022-11-10T16:41:01.670Z,11.40
2022-11-10T16:43:30.061Z,11.40
2022-11-10T16:46:00.276Z,11.40
2022-11-10T16:48:30.501Z,11.30
2022-11-10T16:50:58.951Z,11.30
2022-11-10T16:53:28.298Z,11.20
2022-11-10T16:55:55.062Z,11.20
2022-11-10T16:58:24.222Z,11.10
2022-11-10T17:00:51.279Z,11.10
2022-11-10T17:03:24.076Z,11.10
2022-11-10T17:05:50.720Z,11.00
2022-11-10T17:08:29.422Z,10.90
2022-11-10T17:10:56.877Z,10.90
2022-11-10T17:13:24.514Z,10.80
2022-11-10T17:15:53.834Z,10.80
2022-11-10T17:18:24.096Z,10.80
2022-11-10T17:20:53.051Z,10.80
2022-11-10T17:23:24.824Z,10.70
2022-11-10T17:25:54.053Z,10.70
2022-11-10T17:28:20.976Z,10.70
2022-11-10T17:30:47.624Z,10.70
2022-11-10T17:33:14.375Z,10.70
2022-11-10T17:35:46.700Z,10.70
2022-11-10T17:38:22.388Z,10.60
2022-11-10T17:40:49.146Z,10.60
2022-11-10T17:43:15.935Z,10.50
2022-11-10T17:45:42.543Z,10.50
2022-11-10T17:48:09.841Z,10.50
2022-11-10T17:50:38.286Z,10.50
2022-11-10T17:53:22.682Z,10.50
2022-11-10T17:55:50.084Z,10.50
2022-11-10T17:58:17.657Z,10.50
2022-11-10T18:00:45.534Z,10.40
2022-11-10T18:03:21.357Z,10.40
2022-11-10T18:05:48.943Z,10.40
2022-11-10T18:08:16.898Z,10.40
2022-11-10T18:10:47.993Z,10.30
2022-11-10T18:13:15.239Z,10.30
2022-11-10T18:15:43.521Z,10.30
2022-11-10T18:18:14.706Z,10.30
2022-11-10T18:20:42.215Z,10.20
2022-11-10T18:23:11.543Z,10.20
2022-11-10T18:25:39.835Z,10.20
2022-11-10T18:28:06.733Z,10.20
2022-11-10T18:30:35.351Z,10.10
2022-11-10T18:33:03.158Z,10.10
2022-11-10T18:35:29.953Z,10.10
2022-11-10T18:37:58.141Z,10.10
2022-11-10T18:40:25.121Z,10.10
2022-11-10T18:42:55.367Z,10.10
2022-11-10T18:45:21.988Z,10.10
2022-11-10T18:47:48.611Z,10.10
2022-11-10T18:50:15.256Z,10.00
2022-11-10T18:52:41.946Z,10.00
2022-11-10T18:55:09.446Z,10.00
2022-11-10T18:57:36.132Z,9.90
2022-11-10T19:00:05.266Z,10.00
2022-11-10T19:02:31.872Z,9.90
2022-11-10T19:04:58.494Z,9.90
2022-11-10T19:07:25.109Z,9.90
2022-11-10T19:09:51.823Z,9.80
2022-11-10T19:12:22.617Z,9.80
2022-11-10T19:14:52.117Z,9.80
2022-11-10T19:17:19.736Z,9.80
2022-11-10T19:19:46.436Z,9.80
2022-11-10T19:22:13.081Z,9.80
2022-11-10T19:25:00.835Z,9.80
2022-11-10T19:27:26.387Z,9.80
2022-11-10T19:29:53.424Z,9.70
2022-11-10T19:32:24.630Z,9.70
2022-11-10T19:34:51.676Z,9.70
2022-11-10T19:37:19.737Z,9.70
2022-11-10T19:39:46.410Z,9.70
2022-11-10T19:42:13.022Z,9.70
2022-11-10T19:44:39.721Z,9.70
2022-11-10T19:47:06.402Z,9.70
2022-11-10T19:49:35.862Z,9.60
2022-11-10T19:52:02.493Z,9.60
2022-11-10T19:54:29.137Z,9.50
2022-11-10T19:56:55.753Z,9.60
2022-11-10T19:59:22.439Z,9.50
2022-11-10T20:01:49.153Z,9.50
2022-11-10T20:04:18.974Z,9.50
2022-11-10T20:06:45.679Z,9.50
2022-11-10T20:09:12.449Z,9.50
2022-11-10T20:11:39.101Z,9.50
2022-11-10T20:14:06.884Z,9.40
2022-11-10T20:16:33.593Z,9.40
2022-11-10T20:19:00.262Z,9.40
2022-11-10T20:21:27.538Z,9.40
2022-11-10T20:23:55.456Z,9.40
2022-11-10T20:26:23.289Z,9.40
2022-11-10T20:28:50.105Z,9.30
2022-11-10T20:31:21.090Z,9.30
2022-11-10T20:33:48.906Z,9.30
2022-11-10T20:36:20.963Z,9.20
2022-11-10T20:38:49.673Z,9.20
2022-11-10T20:41:22.450Z,9.20
2022-11-10T20:43:49.133Z,9.20
2022-11-10T20:46:40.191Z,9.10
2022-11-10T20:49:05.786Z,9.10
2022-11-10T20:51:32.406Z,9.10
2022-11-10T20:54:00.318Z,9.10
